Time;durP1;ratioP1;P1;durP2;ratioP2;P2;SDS_P1;SDS_P2;PMS_P1;PMS_P2;Temp;Humidity;BMP_temperature;BMP_pressure;BME280_temperature;BME280_humidity;BME280_pressure;Samples;Min_cycle;Max_cycle;Signal;HPM_P1;HPM_P2
2021/07/03 00:00:06;;;;;;;7.26;4.96;;;;;;;;;;339704;158;857522;-59
2021/07/03 00:01:08;;;;;;;7.21;5.34;;;;;;;;;;338612;155;866831;-60
2021/07/03 00:02:13;;;;;;;10.09;5.29;;;;;;;;;;340480;155;857371;-60
2021/07/03 00:03:13;;;;;;;7.38;5.31;;;;;;;;;;337309;156;857340;-59
2021/07/03 00:04:14;;;;;;;6.04;5.39;;;;;;;;;;338498;156;857568;-60
2021/07/03 00:05:16;;;;;;;8.82;5.54;;;;;;;;;;338784;155;859503;-59
2021/07/03 00:06:18;;;;;;;8.83;5.49;;;;;;;;;;338183;157;856984;-60
2021/07/03 00:07:20;;;;;;;10.05;6.44;;;;;;;;;;341353;157;858309;-59
2021/07/03 00:08:23;;;;;;;6.37;5.02;;;;;;;;;;340338;155;860607;-59
2021/07/03 00:09:25;;;;;;;8.91;5.69;;;;;;;;;;339962;156;858288;-60
2021/07/03 00:10:28;;;;;;;6.64;5.35;;;;;;;;;;340207;158;858822;-59
2021/07/03 00:11:29;;;;;;;8.82;6.04;;;;;;;;;;338384;155;857291;-59
2021/07/03 00:12:31;;;;;;;8.66;5.65;;;;;;;;;;341499;155;857548;-60
2021/07/03 00:13:32;;;;;;;8.56;5.33;;;;;;;;;;340900;156;857259;-59
2021/07/03 00:14:34;;;;;;;7.26;5.04;;;;;;;;;;343159;156;857310;-59
2021/07/03 00:15:36;;;;;;;8.44;5.69;;;;;;;;;;342365;154;857506;-59
2021/07/03 00:16:40;;;;;;;6.66;5.25;;;;;;;;;;341511;156;858687;-60
2021/07/03 00:17:41;;;;;;;8.69;5.50;;;;;;;;;;341965;157;859055;-59
2021/07/03 00:18:43;;;;;;;7.70;5.26;;;;;;;;;;339898;154;865604;-61
2021/07/03 00:19:44;;;;;;;10.38;5.46;;;;;;;;;;341108;154;857373;-59
2021/07/03 00:20:46;;;;;;;8.70;5.19;;;;;;;;;;341879;157;857325;-59
2021/07/03 00:21:48;;;;;;;5.95;4.79;;;;;;;;;;340311;156;864850;-59
2021/07/03 00:22:49;;;;;;;6.09;4.93;;;;;;;;;;341199;154;857244;-61
2021/07/03 00:23:51;;;;;;;6.05;4.56;;;;;;;;;;340513;155;857399;-59
2021/07/03 00:24:52;;;;;;;7.79;4.97;;;;;;;;;;342051;157;866087;-59
2021/07/03 00:25:54;;;;;;;10.17;4.77;;;;;;;;;;341798;155;866839;-59
2021/07/03 00:26:56;;;;;;;7.94;4.39;;;;;;;;;;342409;155;859409;-59
2021/07/03 00:27:57;;;;;;;7.41;5.03;;;;;;;;;;341736;156;858660;-59
2021/07/03 00:28:59;;;;;;;7.23;4.37;;;;;;;;;;341930;155;857285;-59
2021/07/03 00:30:00;;;;;;;7.81;5.04;;;;;;;;;;341143;156;857283;-58
2021/07/03 00:31:02;;;;;;;7.12;4.26;;;;;;;;;;341402;156;857234;-59
2021/07/03 00:32:04;;;;;;;6.96;3.88;;;;;;;;;;338977;157;857376;-58
2021/07/03 00:33:06;;;;;;;6.56;4.13;;;;;;;;;;341523;154;864898;-59
2021/07/03 00:34:07;;;;;;;8.29;4.19;;;;;;;;;;341025;155;858785;-58
2021/07/03 00:35:09;;;;;;;4.86;3.86;;;;;;;;;;341337;157;857306;-60
2021/07/03 00:36:12;;;;;;;6.77;3.89;;;;;;;;;;341393;157;857166;-60
2021/07/03 00:37:14;;;;;;;6.94;3.85;;;;;;;;;;341482;155;859635;-58
2021/07/03 00:38:16;;;;;;;5.95;4.05;;;;;;;;;;342414;156;866796;-60
2021/07/03 00:39:17;;;;;;;5.06;3.66;;;;;;;;;;342028;156;857419;-59
2021/07/03 00:40:20;;;;;;;7.49;3.83;;;;;;;;;;341293;155;856598;-60
2021/07/03 00:41:21;;;;;;;4.94;3.09;;;;;;;;;;341761;154;865396;-59
2021/07/03 00:42:23;;;;;;;7.57;3.66;;;;;;;;;;340023;156;857396;-60
2021/07/03 00:43:24;;;;;;;4.78;3.36;;;;;;;;;;335300;160;858984;-59
2021/07/03 00:44:31;;;;;;;5.61;3.37;;;;;;;;;;342226;154;864910;-59
2021/07/03 00:45:32;;;;;;;8.16;3.38;;;;;;;;;;339183;156;857782;-59
2021/07/03 00:46:36;;;;;;;8.76;3.71;;;;;;;;;;340616;157;857791;-59
2021/07/03 00:47:37;;;;;;;5.60;3.49;;;;;;;;;;341222;154;857827;-59
2021/07/03 00:48:39;;;;;;;8.92;3.59;;;;;;;;;;341875;155;857296;-59
2021/07/03 00:49:40;;;;;;;9.71;3.40;;;;;;;;;;341609;157;866604;-59
2021/07/03 00:50:43;;;;;;;6.30;3.35;;;;;;;;;;343220;156;864996;-59
2021/07/03 00:51:45;;;;;;;5.91;3.32;;;;;;;;;;341900;154;859039;-60
2021/07/03 00:52:47;;;;;;;7.54;3.50;;;;;;;;;;339885;156;857281;-59
2021/07/03 00:53:48;;;;;;;6.98;3.26;;;;;;;;;;342576;156;858321;-59
2021/07/03 00:54:50;;;;;;;5.19;3.22;;;;;;;;;;341047;154;859468;-58
2021/07/03 00:55:52;;;;;;;9.09;3.43;;;;;;;;;;342278;154;858590;-59
2021/07/03 00:57:03;;;;;;;9.66;3.53;;;;;;;;;;338748;157;864737;-59
2021/07/03 00:58:04;;;;;;;;;;;;;;;;;;340630;156;859683;-60
2021/07/03 00:59:05;;;;;;;8.73;3.31;;;;;;;;;;340890;156;859032;-60
2021/07/03 01:00:08;;;;;;;6.36;3.07;;;;;;;;;;341413;157;857258;-61
2021/07/03 01:01:09;;;;;;;6.55;3.21;;;;;;;;;;339549;157;864706;-59
2021/07/03 01:02:12;;;;;;;6.29;3.23;;;;;;;;;;341629;154;858917;-60
2021/07/03 01:03:13;;;;;;;6.37;3.15;;;;;;;;;;339718;153;857435;-60
2021/07/03 01:04:15;;;;;;;4.94;2.98;;;;;;;;;;345810;153;857399;-60
2021/07/03 01:05:17;;;;;;;8.74;3.22;;;;;;;;;;339954;156;857577;-61
2021/07/03 01:06:22;;;;;;;8.11;3.36;;;;;;;;;;346152;153;857411;-61
2021/07/03 01:07:23;;;;;;;6.00;3.28;;;;;;;;;;345044;154;857495;-60
2021/07/03 01:08:25;;;;;;;7.18;3.35;;;;;;;;;;336478;159;857891;-60
2021/07/03 01:09:27;;;;;;;6.55;3.15;;;;;;;;;;340279;156;864727;-59
2021/07/03 01:10:30;;;;;;;7.35;2.93;;;;;;;;;;341006;157;865981;-60
2021/07/03 01:11:31;;;;;;;6.95;3.17;;;;;;;;;;347112;153;859021;-59
2021/07/03 01:12:33;;;;;;;8.01;3.27;;;;;;;;;;340727;156;858567;-58
2021/07/03 01:13:34;;;;;;;10.59;3.35;;;;;;;;;;345226;153;857460;-58
2021/07/03 01:14:40;;;;;;;8.81;3.56;;;;;;;;;;339018;159;857306;-58
2021/07/03 01:15:41;;;;;;;7.52;2.76;;;;;;;;;;341343;155;858697;-59
2021/07/03 01:16:45;;;;;;;5.34;3.21;;;;;;;;;;341467;155;857290;-60
2021/07/03 01:17:47;;;;;;;5.47;2.91;;;;;;;;;;346267;155;857758;-58
2021/07/03 01:18:48;;;;;;;7.87;3.30;;;;;;;;;;344933;155;861019;-58
2021/07/03 01:19:50;;;;;;;6.71;3.09;;;;;;;;;;337943;156;859023;-58
2021/07/03 01:20:52;;;;;;;8.17;3.15;;;;;;;;;;341353;157;857248;-58
2021/07/03 01:21:54;;;;;;;7.00;3.30;;;;;;;;;;338914;159;857349;-59
2021/07/03 01:22:56;;;;;;;5.78;3.29;;;;;;;;;;342040;153;857312;-58
2021/07/03 01:23:57;;;;;;;9.28;3.11;;;;;;;;;;345822;153;857449;-58
2021/07/03 01:24:59;;;;;;;10.86;3.14;;;;;;;;;;348055;154;866548;-58
2021/07/03 01:26:01;;;;;;;4.52;2.93;;;;;;;;;;341577;154;858351;-59
2021/07/03 01:27:03;;;;;;;6.61;2.96;;;;;;;;;;345372;153;858901;-58
2021/07/03 01:28:05;;;;;;;9.82;3.29;;;;;;;;;;345821;154;858635;-58
2021/07/03 01:29:07;;;;;;;5.95;3.07;;;;;;;;;;345348;155;864871;-58
2021/07/03 01:30:10;;;;;;;7.98;3.22;;;;;;;;;;344395;155;857489;-59
2021/07/03 01:31:12;;;;;;;4.97;2.97;;;;;;;;;;345954;153;857261;-59
2021/07/03 01:32:14;;;;;;;7.05;3.59;;;;;;;;;;340190;157;860968;-58
2021/07/03 01:33:15;;;;;;;5.42;3.19;;;;;;;;;;342511;156;864878;-58
2021/07/03 01:34:17;;;;;;;5.54;3.09;;;;;;;;;;345560;153;864998;-58
2021/07/03 01:35:21;;;;;;;7.33;2.83;;;;;;;;;;337634;157;857391;-59
2021/07/03 01:37:27;;;;;;;6.77;2.66;;;;;;;;;;343847;153;859361;-59
2021/07/03 01:38:29;;;;;;;5.61;2.98;;;;;;;;;;347583;152;857271;-59
2021/07/03 01:39:30;;;;;;;8.51;3.34;;;;;;;;;;345210;155;859008;-59
2021/07/03 01:40:33;;;;;;;5.70;3.09;;;;;;;;;;342410;152;864717;-60
2021/07/03 01:41:35;;;;;;;7.89;3.44;;;;;;;;;;345474;152;859636;-59
2021/07/03 01:42:37;;;;;;;7.57;3.07;;;;;;;;;;344546;154;857371;-59
2021/07/03 01:43:38;;;;;;;9.81;2.88;;;;;;;;;;347584;154;857443;-59
2021/07/03 01:44:41;;;;;;;6.38;2.89;;;;;;;;;;354347;148;857330;-59
2021/07/03 01:45:43;;;;;;;7.10;3.16;;;;;;;;;;357971;149;864890;-59
2021/07/03 01:46:45;;;;;;;6.57;3.21;;;;;;;;;;358688;150;859527;-59
2021/07/03 01:47:46;;;;;;;7.51;2.66;;;;;;;;;;357521;147;860284;-59
2021/07/03 01:48:48;;;;;;;8.03;3.19;;;;;;;;;;355736;147;857803;-58
2021/07/03 01:49:50;;;;;;;5.75;3.04;;;;;;;;;;353981;150;857349;-59
2021/07/03 01:50:51;;;;;;;6.70;3.04;;;;;;;;;;353891;149;857321;-58
2021/07/03 01:51:53;;;;;;;7.41;2.51;;;;;;;;;;355993;147;866579;-59
2021/07/03 01:52:55;;;;;;;8.01;2.79;;;;;;;;;;354963;150;859474;-59
2021/07/03 01:53:58;;;;;;;9.26;2.76;;;;;;;;;;356809;150;865049;-58
2021/07/03 01:54:59;;;;;;;4.59;2.68;;;;;;;;;;353251;148;859676;-59
2021/07/03 01:56:01;;;;;;;5.64;2.96;;;;;;;;;;357811;147;857351;-59
2021/07/03 01:57:03;;;;;;;8.22;2.86;;;;;;;;;;359148;149;867548;-59
2021/07/03 01:58:05;;;;;;;7.85;3.00;;;;;;;;;;357981;149;857396;-58
2021/07/03 01:59:06;;;;;;;8.19;2.57;;;;;;;;;;355104;147;865348;-59
2021/07/03 02:00:09;;;;;;;4.91;2.79;;;;;;;;;;356660;150;857415;-59
2021/07/03 02:01:11;;;;;;;8.41;3.16;;;;;;;;;;353925;150;857716;-59
2021/07/03 02:02:13;;;;;;;11.94;3.81;;;;;;;;;;355631;150;859135;-58
2021/07/03 02:03:15;;;;;;;13.15;3.84;;;;;;;;;;356229;149;858828;-58
2021/07/03 02:04:17;;;;;;;5.69;2.89;;;;;;;;;;350912;153;857530;-59
2021/07/03 02:05:18;;;;;;;19.26;4.07;;;;;;;;;;348311;150;858548;-59
2021/07/03 02:06:22;;;;;;;6.18;3.24;;;;;;;;;;349362;150;857415;-59
2021/07/03 02:07:23;;;;;;;7.98;3.39;;;;;;;;;;349457;153;858597;-59
2021/07/03 02:08:25;;;;;;;7.22;3.06;;;;;;;;;;345599;153;857252;-59
2021/07/03 02:09:26;;;;;;;11.40;3.61;;;;;;;;;;347573;153;857248;-59
2021/07/03 02:10:30;;;;;;;12.30;3.08;;;;;;;;;;343269;153;857254;-59
2021/07/03 02:11:31;;;;;;;25.75;5.61;;;;;;;;;;352802;152;857349;-61
2021/07/03 02:12:33;;;;;;;10.14;3.20;;;;;;;;;;350112;150;857362;-59
2021/07/03 02:13:34;;;;;;;9.10;3.67;;;;;;;;;;347687;151;859181;-65
2021/07/03 02:14:36;;;;;;;11.66;4.07;;;;;;;;;;350099;154;858985;-59
2021/07/03 02:15:38;;;;;;;9.07;3.94;;;;;;;;;;348277;154;861275;-59
2021/07/03 02:16:40;;;;;;;11.65;3.47;;;;;;;;;;346399;151;860165;-59
2021/07/03 02:17:41;;;;;;;7.04;3.74;;;;;;;;;;349601;151;865662;-59
2021/07/03 02:18:43;;;;;;;6.56;3.94;;;;;;;;;;347530;154;857259;-60
2021/07/03 02:19:45;;;;;;;5.55;4.11;;;;;;;;;;349547;151;865253;-61
2021/07/03 02:20:47;;;;;;;9.71;4.48;;;;;;;;;;347182;151;857384;-60
2021/07/03 02:21:48;;;;;;;6.58;4.28;;;;;;;;;;350121;154;866543;-59
2021/07/03 02:22:50;;;;;;;7.36;4.81;;;;;;;;;;346972;154;857238;-60
2021/07/03 02:23:51;;;;;;;8.34;4.89;;;;;;;;;;346986;151;860007;-59
2021/07/03 02:24:53;;;;;;;7.97;4.79;;;;;;;;;;346487;154;866075;-60
2021/07/03 02:25:55;;;;;;;9.26;4.47;;;;;;;;;;348599;154;859582;-59
2021/07/03 02:26:57;;;;;;;7.04;4.52;;;;;;;;;;345927;151;857320;-60
2021/07/03 02:27:58;;;;;;;7.91;4.76;;;;;;;;;;347798;151;864762;-60
2021/07/03 02:29:00;;;;;;;8.08;4.72;;;;;;;;;;346102;153;858877;-59
2021/07/03 02:30:03;;;;;;;7.25;4.88;;;;;;;;;;348173;153;858136;-60
2021/07/03 02:31:05;;;;;;;9.09;5.14;;;;;;;;;;347579;151;864957;-59
2021/07/03 02:32:07;;;;;;;8.18;4.48;;;;;;;;;;348394;153;857386;-59
2021/07/03 02:33:09;;;;;;;10.57;5.01;;;;;;;;;;346302;154;866246;-60
2021/07/03 02:34:10;;;;;;;8.96;4.95;;;;;;;;;;347674;153;859753;-60
2021/07/03 02:35:12;;;;;;;6.44;4.70;;;;;;;;;;349224;154;859257;-59
2021/07/03 02:36:15;;;;;;;7.24;5.22;;;;;;;;;;350045;153;857817;-59
2021/07/03 02:37:17;;;;;;;6.79;5.26;;;;;;;;;;349873;153;857509;-59
2021/07/03 02:38:18;;;;;;;10.19;5.46;;;;;;;;;;348655;154;859122;-60
2021/07/03 02:39:20;;;;;;;6.14;5.27;;;;;;;;;;347227;154;865216;-59
2021/07/03 02:40:23;;;;;;;6.88;5.17;;;;;;;;;;348261;154;865838;-59
2021/07/03 02:41:25;;;;;;;5.93;5.15;;;;;;;;;;348765;151;858655;-60
2021/07/03 02:42:27;;;;;;;11.01;5.19;;;;;;;;;;349553;153;857432;-59
2021/07/03 02:43:28;;;;;;;9.69;4.91;;;;;;;;;;347789;153;857740;-59
2021/07/03 02:44:30;;;;;;;8.59;5.28;;;;;;;;;;346269;154;857403;-60
2021/07/03 02:45:31;;;;;;;8.08;5.57;;;;;;;;;;347666;151;864966;-59
2021/07/03 02:46:34;;;;;;;7.21;4.58;;;;;;;;;;349549;154;857409;-59
2021/07/03 02:47:36;;;;;;;6.73;5.25;;;;;;;;;;349895;153;864919;-60
2021/07/03 02:48:37;;;;;;;6.39;4.42;;;;;;;;;;347883;151;857397;-60
2021/07/03 02:49:39;;;;;;;6.91;4.81;;;;;;;;;;347433;154;865053;-60
2021/07/03 02:50:42;;;;;;;7.16;4.17;;;;;;;;;;348061;154;857347;-59
2021/07/03 02:51:44;;;;;;;4.39;3.79;;;;;;;;;;346172;154;857913;-59
2021/07/03 02:52:45;;;;;;;6.79;3.94;;;;;;;;;;348459;151;857352;-60
2021/07/03 02:53:47;;;;;;;5.46;3.60;;;;;;;;;;345322;154;857270;-60
2021/07/03 02:54:49;;;;;;;4.57;3.97;;;;;;;;;;349359;154;860608;-60
2021/07/03 02:55:51;;;;;;;5.77;4.27;;;;;;;;;;344123;152;858786;-59
2021/07/03 02:56:57;;;;;;;5.92;4.00;;;;;;;;;;348171;153;858357;-59
2021/07/03 02:57:56;;;;;;;4.87;3.98;;;;;;;;;;350828;153;865592;-59
2021/07/03 02:58:58;;;;;;;5.26;3.76;;;;;;;;;;348276;153;857263;-59
2021/07/03 02:59:59;;;;;;;5.53;4.31;;;;;;;;;;348831;150;857922;-60
2021/07/03 03:01:01;;;;;;;6.10;4.38;;;;;;;;;;348177;153;864827;-60
2021/07/03 03:02:03;;;;;;;6.83;3.91;;;;;;;;;;350986;153;864674;-60
2021/07/03 03:03:04;;;;;;;6.80;4.04;;;;;;;;;;348988;150;864815;-59
2021/07/03 03:04:06;;;;;;;6.45;3.76;;;;;;;;;;350501;153;857806;-59
2021/07/03 03:05:08;;;;;;;6.66;3.32;;;;;;;;;;347409;150;857288;-58
2021/07/03 03:06:11;;;;;;;4.91;3.31;;;;;;;;;;347459;151;857300;-59
2021/07/03 03:07:32;;;;;;;4.91;3.45;;;;;;;;;;345913;155;865790;-59
2021/07/03 03:08:34;;;;;;;4.39;3.61;;;;;;;;;;359570;146;857196;-58
2021/07/03 03:09:36;;;;;;;6.34;3.50;;;;;;;;;;364808;144;857317;-59
2021/07/03 03:10:38;;;;;;;4.41;3.37;;;;;;;;;;362255;144;859377;-59
2021/07/03 03:11:40;;;;;;;4.27;3.13;;;;;;;;;;364620;146;859297;-58
2021/07/03 03:12:42;;;;;;;6.72;3.26;;;;;;;;;;362617;146;857431;-59
2021/07/03 03:13:43;;;;;;;5.40;3.38;;;;;;;;;;363974;144;857334;-60
2021/07/03 03:14:45;;;;;;;3.70;2.75;;;;;;;;;;362241;146;857219;-59
2021/07/03 03:15:47;;;;;;;3.83;3.18;;;;;;;;;;365450;146;859269;-59
2021/07/03 03:16:49;;;;;;;5.04;2.83;;;;;;;;;;362231;144;859217;-58
2021/07/03 03:17:50;;;;;;;3.96;2.88;;;;;;;;;;364839;146;858850;-59
2021/07/03 03:18:52;;;;;;;3.74;2.92;;;;;;;;;;363256;146;859072;-59
2021/07/03 03:19:53;;;;;;;3.44;2.95;;;;;;;;;;362632;146;858783;-58
2021/07/03 03:20:55;;;;;;;3.26;2.40;;;;;;;;;;357296;147;864684;-59
2021/07/03 03:21:57;;;;;;;3.51;2.51;;;;;;;;;;364151;146;864815;-58
2021/07/03 03:22:58;;;;;;;3.01;2.33;;;;;;;;;;365429;146;859066;-59
2021/07/03 03:24:00;;;;;;;4.30;2.69;;;;;;;;;;359837;145;864771;-59
2021/07/03 03:25:02;;;;;;;4.52;2.66;;;;;;;;;;359311;145;857196;-59
2021/07/03 03:26:04;;;;;;;2.81;2.19;;;;;;;;;;354823;149;864718;-59
2021/07/03 03:27:06;;;;;;;3.41;2.57;;;;;;;;;;360354;146;858675;-60
2021/07/03 03:28:07;;;;;;;3.98;2.51;;;;;;;;;;360374;146;857792;-59
2021/07/03 03:29:09;;;;;;;3.94;2.41;;;;;;;;;;358619;149;857311;-59
2021/07/03 03:30:11;;;;;;;6.47;2.80;;;;;;;;;;363131;147;857196;-59
2021/07/03 03:31:13;;;;;;;4.33;2.44;;;;;;;;;;362775;144;857401;-60
2021/07/03 03:32:14;;;;;;;2.67;2.47;;;;;;;;;;365302;144;859118;-59
2021/07/03 03:33:16;;;;;;;4.30;2.48;;;;;;;;;;367242;144;859018;-57
2021/07/03 03:34:17;;;;;;;3.04;2.26;;;;;;;;;;364677;145;857459;-58
2021/07/03 03:35:19;;;;;;;3.01;1.92;;;;;;;;;;358441;146;856562;-58
2021/07/03 03:36:21;;;;;;;4.82;2.03;;;;;;;;;;364217;146;857392;-58
2021/07/03 03:37:23;;;;;;;2.18;1.98;;;;;;;;;;360544;149;857326;-57
2021/07/03 03:38:24;;;;;;;4.31;2.42;;;;;;;;;;361650;144;859685;-57
2021/07/03 03:39:26;;;;;;;2.26;2.06;;;;;;;;;;361899;146;858771;-58
2021/07/03 03:40:28;;;;;;;3.55;2.64;;;;;;;;;;364923;146;864427;-58
2021/07/03 03:41:30;;;;;;;3.10;2.35;;;;;;;;;;366453;144;857353;-59
2021/07/03 03:42:31;;;;;;;3.18;2.31;;;;;;;;;;364420;144;857321;-57
2021/07/03 03:43:33;;;;;;;3.51;2.56;;;;;;;;;;363653;147;857269;-57
2021/07/03 03:44:34;;;;;;;5.28;2.53;;;;;;;;;;365676;144;857265;-58
2021/07/03 03:45:36;;;;;;;5.42;2.71;;;;;;;;;;363780;144;858865;-58
2021/07/03 03:46:39;;;;;;;4.74;2.67;;;;;;;;;;360384;146;860426;-58
2021/07/03 03:47:41;;;;;;;3.65;2.59;;;;;;;;;;362210;146;866580;-58
2021/07/03 03:48:43;;;;;;;3.88;2.66;;;;;;;;;;364412;144;864688;-58
2021/07/03 03:49:44;;;;;;;3.85;2.59;;;;;;;;;;357181;149;857201;-58
2021/07/03 03:50:46;;;;;;;3.41;2.51;;;;;;;;;;359198;147;858876;-58
2021/07/03 03:51:48;;;;;;;4.06;2.69;;;;;;;;;;357161;146;866275;-59
2021/07/03 03:52:49;;;;;;;3.82;2.87;;;;;;;;;;357791;145;857419;-59
2021/07/03 03:53:51;;;;;;;5.29;2.61;;;;;;;;;;357841;149;858752;-58
2021/07/03 03:54:53;;;;;;;5.34;2.73;;;;;;;;;;358820;149;859219;-59
2021/07/03 03:55:54;;;;;;;3.57;2.51;;;;;;;;;;361652;146;857239;-61
2021/07/03 03:58:16;;;;;;;3.19;2.62;;;;;;;;;;357752;149;866187;-59
2021/07/03 03:59:17;;;;;;;6.19;2.50;;;;;;;;;;363119;146;866204;-59
2021/07/03 04:00:20;;;;;;;2.84;2.53;;;;;;;;;;364078;144;856489;-61
2021/07/03 04:01:21;;;;;;;4.73;2.48;;;;;;;;;;359067;149;857376;-63
2021/07/03 04:02:23;;;;;;;3.69;2.60;;;;;;;;;;358045;146;865997;-61
2021/07/03 04:03:24;;;;;;;2.85;2.08;;;;;;;;;;359871;146;858876;-61
2021/07/03 04:04:26;;;;;;;3.91;2.30;;;;;;;;;;364550;146;866073;-62
2021/07/03 04:05:28;;;;;;;2.75;2.15;;;;;;;;;;360799;145;857219;-64
2021/07/03 04:06:30;;;;;;;7.05;2.38;;;;;;;;;;359627;145;857274;-64
2021/07/03 04:07:31;;;;;;;2.65;2.11;;;;;;;;;;364480;144;857147;-61
2021/07/03 04:08:34;;;;;;;3.91;2.46;;;;;;;;;;359190;146;858736;-61
2021/07/03 04:09:36;;;;;;;4.46;2.92;;;;;;;;;;364793;145;860248;-61
2021/07/03 04:10:39;;;;;;;5.61;2.34;;;;;;;;;;361056;146;859034;-63
2021/07/03 04:11:40;;;;;;;4.79;2.45;;;;;;;;;;360890;146;859669;-63
2021/07/03 04:12:42;;;;;;;2.59;2.39;;;;;;;;;;358117;147;857413;-62
2021/07/03 04:13:43;;;;;;;5.60;2.49;;;;;;;;;;354386;148;865848;-60
2021/07/03 04:14:45;;;;;;;2.62;2.39;;;;;;;;;;364914;146;857285;-59
2021/07/03 04:15:47;;;;;;;2.78;2.04;;;;;;;;;;360229;146;857286;-64
2021/07/03 04:16:48;;;;;;;2.23;1.99;;;;;;;;;;364006;145;858910;-65
2021/07/03 04:17:50;;;;;;;2.85;2.28;;;;;;;;;;363161;145;865835;-65
2021/07/03 04:18:51;;;;;;;2.54;2.14;;;;;;;;;;353465;150;857987;-60
2021/07/03 04:19:53;;;;;;;2.81;2.06;;;;;;;;;;365162;147;859153;-60
2021/07/03 04:20:55;;;;;;;2.61;2.04;;;;;;;;;;363789;145;857184;-61
2021/07/03 04:21:56;;;;;;;3.12;1.84;;;;;;;;;;362872;148;864854;-63
2021/07/03 04:22:58;;;;;;;4.59;2.17;;;;;;;;;;363030;148;857346;-62
2021/07/03 04:23:59;;;;;;;3.62;2.27;;;;;;;;;;356304;149;864854;-62
2021/07/03 04:25:01;;;;;;;3.90;2.14;;;;;;;;;;362461;147;858158;-61
2021/07/03 04:26:03;;;;;;;3.33;2.29;;;;;;;;;;360330;145;858279;-61
2021/07/03 04:27:04;;;;;;;3.07;2.31;;;;;;;;;;355518;148;857416;-63
2021/07/03 04:28:06;;;;;;;2.19;1.99;;;;;;;;;;351545;149;857288;-63
2021/07/03 04:29:08;;;;;;;2.88;2.21;;;;;;;;;;358280;148;857226;-63
2021/07/03 04:30:11;;;;;;;2.52;2.05;;;;;;;;;;359423;148;865480;-63
2021/07/03 04:31:12;;;;;;;2.52;1.99;;;;;;;;;;359066;148;859774;-63
2021/07/03 04:32:14;;;;;;;3.57;2.09;;;;;;;;;;358454;148;858612;-60
2021/07/03 04:33:16;;;;;;;2.46;2.18;;;;;;;;;;356695;148;857356;-61
2021/07/03 04:34:17;;;;;;;4.32;2.09;;;;;;;;;;360462;148;857407;-61
2021/07/03 04:35:19;;;;;;;4.02;1.98;;;;;;;;;;356994;148;857479;-61
2021/07/03 04:36:21;;;;;;;2.59;1.97;;;;;;;;;;359920;149;856607;-62
2021/07/03 04:37:22;;;;;;;4.01;2.07;;;;;;;;;;360039;149;859969;-62
2021/07/03 04:38:24;;;;;;;2.21;1.84;;;;;;;;;;357442;148;866384;-61
2021/07/03 04:39:25;;;;;;;2.33;1.90;;;;;;;;;;353830;150;857823;-61
2021/07/03 04:40:28;;;;;;;2.04;1.83;;;;;;;;;;350213;152;857215;-61
2021/07/03 04:41:29;;;;;;;2.53;2.10;;;;;;;;;;353192;150;857293;-61
2021/07/03 04:42:31;;;;;;;2.46;1.84;;;;;;;;;;352533;149;857552;-62
2021/07/03 04:43:33;;;;;;;3.35;2.05;;;;;;;;;;351375;151;859131;-60
2021/07/03 04:44:35;;;;;;;2.19;1.65;;;;;;;;;;350866;152;857268;-62
2021/07/03 04:45:36;;;;;;;3.00;2.03;;;;;;;;;;351714;149;857394;-61
2021/07/03 04:46:40;;;;;;;2.28;1.74;;;;;;;;;;351511;149;859297;-60
2021/07/03 04:47:41;;;;;;;2.33;1.79;;;;;;;;;;351611;150;859658;-61
2021/07/03 04:48:43;;;;;;;2.16;1.81;;;;;;;;;;350101;151;860286;-60
2021/07/03 04:49:45;;;;;;;3.21;1.93;;;;;;;;;;353003;151;858945;-61
2021/07/03 04:50:46;;;;;;;2.94;1.84;;;;;;;;;;350986;150;858750;-59
2021/07/03 04:51:48;;;;;;;1.96;1.74;;;;;;;;;;347007;155;864511;-60
2021/07/03 04:52:50;;;;;;;2.04;1.36;;;;;;;;;;350121;151;865413;-60
2021/07/03 04:53:51;;;;;;;2.61;1.82;;;;;;;;;;351638;150;857501;-61
2021/07/03 04:54:53;;;;;;;1.80;1.50;;;;;;;;;;351370;153;864588;-62
2021/07/03 04:55:54;;;;;;;2.31;1.80;;;;;;;;;;350364;149;857257;-62
2021/07/03 04:57:08;;;;;;;1.82;1.72;;;;;;;;;;353446;150;857734;-62
2021/07/03 04:58:30;;;;;;;3.34;1.74;;;;;;;;;;350989;152;864913;-63
2021/07/03 04:59:32;;;;;;;3.32;1.89;;;;;;;;;;349678;150;858218;-62
2021/07/03 05:00:34;;;;;;;2.14;1.94;;;;;;;;;;348252;150;857461;-61
2021/07/03 05:01:36;;;;;;;3.51;1.99;;;;;;;;;;345894;153;857371;-61
2021/07/03 05:02:37;;;;;;;3.63;2.42;;;;;;;;;;346294;153;864874;-61
2021/07/03 05:03:39;;;;;;;2.28;2.09;;;;;;;;;;350004;150;857369;-62
2021/07/03 05:04:42;;;;;;;2.67;2.45;;;;;;;;;;350263;150;857447;-62
2021/07/03 05:05:43;;;;;;;3.16;2.16;;;;;;;;;;348937;150;858335;-63
2021/07/03 05:06:46;;;;;;;2.85;2.31;;;;;;;;;;349482;150;857718;-63
2021/07/03 05:07:48;;;;;;;2.72;2.16;;;;;;;;;;346159;150;857387;-62
2021/07/03 05:08:49;;;;;;;4.09;2.23;;;;;;;;;;347608;154;857443;-62
2021/07/03 05:09:52;;;;;;;2.66;2.17;;;;;;;;;;345119;154;864752;-62
2021/07/03 05:10:53;;;;;;;2.68;2.08;;;;;;;;;;353485;147;859011;-64
2021/07/03 05:11:55;;;;;;;2.39;2.19;;;;;;;;;;354195;150;857278;-63
2021/07/03 05:12:56;;;;;;;2.64;2.10;;;;;;;;;;357008;150;857776;-62
2021/07/03 05:13:58;;;;;;;2.31;2.11;;;;;;;;;;354786;147;857819;-62
2021/07/03 05:14:59;;;;;;;3.44;2.40;;;;;;;;;;353369;148;857841;-60
2021/07/03 05:16:01;;;;;;;4.51;2.63;;;;;;;;;;353984;150;857303;-60
2021/07/03 05:17:03;;;;;;;5.69;2.61;;;;;;;;;;353825;150;864661;-61
2021/07/03 05:18:04;;;;;;;2.71;2.10;;;;;;;;;;353942;147;857823;-60
2021/07/03 05:19:09;;;;;;;2.79;2.09;;;;;;;;;;355843;149;864412;-62
2021/07/03 05:20:12;;;;;;;2.52;2.30;;;;;;;;;;352174;151;858284;-60
2021/07/03 05:21:13;;;;;;;3.27;2.23;;;;;;;;;;352375;149;857386;-60
2021/07/03 05:22:15;;;;;;;3.29;2.46;;;;;;;;;;353490;150;857370;-60
2021/07/03 05:23:16;;;;;;;3.05;2.25;;;;;;;;;;352613;150;857452;-60
2021/07/03 05:24:18;;;;;;;5.49;2.35;;;;;;;;;;355739;147;857408;-60
2021/07/03 05:25:19;;;;;;;3.84;2.85;;;;;;;;;;354190;148;856587;-60
2021/07/03 05:26:22;;;;;;;2.67;2.11;;;;;;;;;;352814;150;857467;-62
2021/07/03 05:27:23;;;;;;;3.96;2.57;;;;;;;;;;356515;150;857196;-63
2021/07/03 05:28:25;;;;;;;2.60;2.16;;;;;;;;;;353975;147;864882;-62
2021/07/03 05:29:27;;;;;;;5.08;2.54;;;;;;;;;;352743;147;865775;-64
2021/07/03 05:30:29;;;;;;;2.77;2.15;;;;;;;;;;352149;150;859395;-63
2021/07/03 05:31:30;;;;;;;2.55;2.34;;;;;;;;;;353794;149;859324;-65
2021/07/03 05:32:32;;;;;;;4.36;2.12;;;;;;;;;;355848;147;857551;-62
2021/07/03 05:33:33;;;;;;;3.27;2.16;;;;;;;;;;352573;150;864932;-60
2021/07/03 05:34:35;;;;;;;3.60;2.42;;;;;;;;;;351934;153;857305;-61
2021/07/03 05:35:37;;;;;;;3.96;2.43;;;;;;;;;;353180;147;857875;-62
2021/07/03 05:36:39;;;;;;;2.49;2.07;;;;;;;;;;353377;147;857433;-61
2021/07/03 05:37:41;;;;;;;2.85;2.17;;;;;;;;;;354241;150;865137;-62
2021/07/03 05:38:47;;;;;;;2.87;2.31;;;;;;;;;;353016;148;864931;-62
2021/07/03 05:39:49;;;;;;;3.00;2.46;;;;;;;;;;352241;147;858111;-63
2021/07/03 05:40:51;;;;;;;2.89;2.47;;;;;;;;;;353969;151;857410;-62
2021/07/03 05:41:53;;;;;;;2.36;2.16;;;;;;;;;;356396;150;867297;-62
2021/07/03 05:42:54;;;;;;;3.98;2.16;;;;;;;;;;355449;147;858989;-62
2021/07/03 05:43:56;;;;;;;3.39;2.26;;;;;;;;;;352847;149;858874;-63
2021/07/03 05:44:57;;;;;;;4.54;2.48;;;;;;;;;;356168;147;858689;-63
2021/07/03 05:45:59;;;;;;;3.37;2.19;;;;;;;;;;359421;147;857386;-63
2021/07/03 05:47:01;;;;;;;2.30;2.06;;;;;;;;;;353525;149;857486;-63
2021/07/03 05:48:02;;;;;;;3.52;2.36;;;;;;;;;;354512;147;864923;-63
2021/07/03 05:49:04;;;;;;;2.53;2.15;;;;;;;;;;352389;150;859006;-63
2021/07/03 05:50:06;;;;;;;2.24;1.97;;;;;;;;;;354427;147;864609;-63
2021/07/03 05:51:08;;;;;;;2.63;2.23;;;;;;;;;;352799;149;857214;-62
2021/07/03 05:52:10;;;;;;;3.46;2.65;;;;;;;;;;352103;153;859915;-62
2021/07/03 05:53:11;;;;;;;4.44;2.20;;;;;;;;;;353843;148;857330;-65
2021/07/03 05:54:13;;;;;;;2.53;2.16;;;;;;;;;;354495;149;866560;-65
2021/07/03 05:55:15;;;;;;;2.68;1.90;;;;;;;;;;355566;146;857335;-63
2021/07/03 05:56:17;;;;;;;2.39;2.11;;;;;;;;;;356389;149;859223;-63
2021/07/03 05:57:19;;;;;;;2.59;2.26;;;;;;;;;;354990;149;856720;-63
2021/07/03 05:58:20;;;;;;;3.52;2.04;;;;;;;;;;354513;149;856614;-62
2021/07/03 05:59:22;;;;;;;2.74;2.28;;;;;;;;;;347068;152;861020;-63
2021/07/03 06:00:24;;;;;;;1.71;1.61;;;;;;;;;;349647;149;859756;-63
2021/07/03 06:01:26;;;;;;;2.13;1.93;;;;;;;;;;354345;147;857444;-64
2021/07/03 06:02:27;;;;;;;2.48;2.06;;;;;;;;;;355318;149;857234;-65
2021/07/03 06:03:29;;;;;;;6.15;1.97;;;;;;;;;;356102;149;858618;-63
2021/07/03 06:04:30;;;;;;;2.99;1.72;;;;;;;;;;354763;146;866737;-64
2021/07/03 06:05:32;;;;;;;2.36;1.91;;;;;;;;;;355240;146;857360;-65
2021/07/03 06:06:34;;;;;;;2.45;1.86;;;;;;;;;;354162;152;857281;-63
2021/07/03 06:07:35;;;;;;;3.14;1.84;;;;;;;;;;354903;146;858871;-63